createdAt,value
2022-09-26T00:00:00.666Z,99965
2022-09-26T00:01:04.797Z,99961
2022-09-26T00:02:00.324Z,99961
2022-09-26T00:03:00.455Z,99961
2022-09-26T00:04:02.607Z,99961
2022-09-26T00:05:00.494Z,99961
2022-09-26T00:06:02.381Z,99943
2022-09-26T00:07:00.284Z,99943
2022-09-26T00:08:00.408Z,99943
2022-09-26T00:09:00.286Z,99943
2022-09-26T00:10:00.288Z,99943
2022-09-26T00:11:01.510Z,99927
2022-09-26T00:12:00.420Z,99927
2022-09-26T00:13:00.272Z,99927
2022-09-26T00:14:02.778Z,99927
2022-09-26T00:15:00.277Z,99927
2022-09-26T00:16:00.946Z,99907
2022-09-26T00:17:00.400Z,99907
2022-09-26T00:18:00.265Z,99907
2022-09-26T00:19:00.586Z,99907
2022-09-26T00:20:00.356Z,99907
2022-09-26T00:21:02.703Z,99884
2022-09-26T00:22:00.265Z,99884
2022-09-26T00:23:00.262Z,99884
2022-09-26T00:24:00.878Z,99884
2022-09-26T00:25:00.329Z,99884
2022-09-26T00:26:00.501Z,99862
2022-09-26T00:27:00.313Z,99862
2022-09-26T00:28:00.348Z,99862
2022-09-26T00:29:01.109Z,99862
2022-09-26T00:30:00.261Z,99862
2022-09-26T00:31:04.785Z,99855
2022-09-26T00:32:00.398Z,99855
2022-09-26T00:33:00.256Z,99855
2022-09-26T00:34:00.882Z,99855
2022-09-26T00:35:00.293Z,99855
2022-09-26T00:36:00.412Z,99842
2022-09-26T00:37:00.266Z,99842
2022-09-26T00:38:00.316Z,99842
2022-09-26T00:39:00.266Z,99842
2022-09-26T00:40:00.363Z,99842
2022-09-26T00:41:00.865Z,99824
2022-09-26T00:42:00.279Z,99824
2022-09-26T00:43:00.275Z,99824
2022-09-26T00:44:00.407Z,99824
2022-09-26T00:45:00.286Z,99824
2022-09-26T00:46:00.335Z,99810
2022-09-26T00:47:00.622Z,99810
2022-09-26T00:48:02.621Z,99810
2022-09-26T00:49:05.006Z,99810
2022-09-26T00:50:03.386Z,99810
2022-09-26T00:51:00.607Z,99794
2022-09-26T00:52:10.187Z,99794
2022-09-26T00:53:00.263Z,99794
2022-09-26T00:54:00.964Z,99794
2022-09-26T00:55:01.662Z,99794
2022-09-26T00:56:03.997Z,99790
2022-09-26T00:57:06.256Z,99790
2022-09-26T00:58:03.539Z,99790
2022-09-26T00:59:01.285Z,99790
2022-09-26T01:00:01.865Z,99790
2022-09-26T01:01:00.413Z,99774
2022-09-26T01:02:01.030Z,99774
2022-09-26T01:03:00.878Z,99774
2022-09-26T01:04:01.528Z,99774
2022-09-26T01:05:01.234Z,99774
2022-09-26T01:06:00.331Z,99762
2022-09-26T01:07:02.427Z,99762
2022-09-26T01:08:01.120Z,99762
2022-09-26T01:09:02.234Z,99762
2022-09-26T01:10:01.611Z,99762
2022-09-26T01:11:00.880Z,99742
2022-09-26T01:12:01.725Z,99742
2022-09-26T01:13:00.940Z,99742
2022-09-26T01:14:00.856Z,99742
2022-09-26T01:15:00.584Z,99742
2022-09-26T01:16:00.370Z,99743
2022-09-26T01:17:00.785Z,99743
2022-09-26T01:18:00.847Z,99743
2022-09-26T01:19:02.204Z,99743
2022-09-26T01:20:00.283Z,99743
2022-09-26T01:21:09.659Z,99739
2022-09-26T01:22:03.594Z,99739
2022-09-26T01:23:01.280Z,99739
2022-09-26T01:24:10.190Z,99739
2022-09-26T01:25:00.468Z,99739
2022-09-26T01:26:10.958Z,99733
2022-09-26T01:27:10.189Z,99733
2022-09-26T01:28:10.180Z,99733
2022-09-26T01:29:00.360Z,99733
2022-09-26T01:30:01.300Z,99733
2022-09-26T01:31:06.765Z,99726
2022-09-26T01:32:08.940Z,99726
2022-09-26T01:33:10.173Z,99726
2022-09-26T01:34:10.167Z,99726
2022-09-26T01:35:05.960Z,99726
2022-09-26T01:36:10.181Z,99725
2022-09-26T01:37:09.923Z,99725
2022-09-26T01:38:10.200Z,99725
2022-09-26T01:39:10.171Z,99725
2022-09-26T01:40:06.586Z,99725
2022-09-26T01:41:07.811Z,99718
2022-09-26T01:42:10.181Z,99718
2022-09-26T01:43:04.619Z,99718
2022-09-26T01:44:08.589Z,99718
2022-09-26T01:45:07.037Z,99718
2022-09-26T01:46:10.275Z,99688
2022-09-26T01:47:00.252Z,99688
2022-09-26T01:48:07.428Z,99688
2022-09-26T01:49:08.446Z,99688
2022-09-26T01:50:00.273Z,99688
2022-09-26T01:51:10.171Z,99680
2022-09-26T01:52:00.261Z,99680
2022-09-26T01:53:02.671Z,99680
2022-09-26T01:54:05.840Z,99680
2022-09-26T01:55:10.224Z,99680
2022-09-26T01:56:02.962Z,99657
2022-09-26T01:57:02.703Z,99657
2022-09-26T01:58:10.188Z,99657
2022-09-26T01:59:09.563Z,99657
2022-09-26T02:00:03.309Z,99657
2022-09-26T02:01:02.598Z,99640
2022-09-26T02:02:03.477Z,99640
2022-09-26T02:03:02.440Z,99640
2022-09-26T02:04:04.954Z,99640
2022-09-26T02:05:06.722Z,99640
2022-09-26T02:06:03.013Z,99632
2022-09-26T02:07:07.898Z,99632
2022-09-26T02:08:10.248Z,99632
2022-09-26T02:09:06.877Z,99632
2022-09-26T02:10:06.866Z,99632
2022-09-26T02:11:03.333Z,99610
2022-09-26T02:12:03.351Z,99610
2022-09-26T02:13:10.176Z,99610
2022-09-26T02:14:05.336Z,99610
2022-09-26T02:15:02.113Z,99610
2022-09-26T02:16:06.016Z,99591
2022-09-26T02:17:05.467Z,99591
2022-09-26T02:18:03.518Z,99591
2022-09-26T02:19:03.502Z,99591
2022-09-26T02:20:10.199Z,99591
2022-09-26T02:21:01.366Z,99576
2022-09-26T02:22:00.595Z,99576
2022-09-26T02:23:00.807Z,99576
2022-09-26T02:24:00.578Z,99576
2022-09-26T02:25:01.252Z,99576
2022-09-26T02:26:00.313Z,99563
2022-09-26T02:27:00.324Z,99563
2022-09-26T02:28:00.473Z,99563
2022-09-26T02:29:00.423Z,99563
2022-09-26T02:30:00.322Z,99563
2022-09-26T02:31:01.883Z,99562
2022-09-26T02:32:02.947Z,99562
2022-09-26T02:33:00.605Z,99562
2022-09-26T02:34:00.783Z,99562
2022-09-26T02:35:01.374Z,99562
2022-09-26T02:36:01.411Z,99546
2022-09-26T02:37:00.289Z,99546
2022-09-26T02:38:00.786Z,99546
2022-09-26T02:39:00.554Z,99546
2022-09-26T02:40:00.439Z,99546
2022-09-26T02:41:00.349Z,99527
2022-09-26T02:42:00.261Z,99527
2022-09-26T02:43:06.497Z,99527
2022-09-26T02:44:01.322Z,99527
2022-09-26T02:45:10.176Z,99527
2022-09-26T02:46:10.208Z,99516
2022-09-26T02:47:00.251Z,99516
2022-09-26T02:48:10.190Z,99516
2022-09-26T02:49:03.565Z,99516
2022-09-26T02:50:01.330Z,99516
2022-09-26T02:51:10.190Z,99496
2022-09-26T02:52:10.174Z,99496
2022-09-26T02:53:03.553Z,99496
2022-09-26T02:54:10.193Z,99496
2022-09-26T02:55:03.586Z,99496
2022-09-26T02:56:07.431Z,99477
2022-09-26T02:57:00.268Z,99477
2022-09-26T02:58:10.176Z,99477
2022-09-26T02:59:08.101Z,99477
2022-09-26T03:00:05.001Z,99477
2022-09-26T03:01:04.907Z,99463
2022-09-26T03:02:10.173Z,99463
2022-09-26T03:03:03.778Z,99463
2022-09-26T03:04:05.172Z,99463
2022-09-26T03:05:02.310Z,99463
2022-09-26T03:06:01.946Z,99452
2022-09-26T03:07:03.608Z,99452
2022-09-26T03:08:03.874Z,99452
2022-09-26T03:09:01.044Z,99452
2022-09-26T03:10:02.191Z,99452
2022-09-26T03:11:01.944Z,99434
2022-09-26T03:12:01.492Z,99434
2022-09-26T03:13:02.657Z,99434
2022-09-26T03:14:00.789Z,99434
2022-09-26T03:15:01.422Z,99434
2022-09-26T03:16:00.707Z,99417
2022-09-26T03:17:01.154Z,99417
2022-09-26T03:18:00.878Z,99417
2022-09-26T03:19:00.264Z,99417
2022-09-26T03:20:10.223Z,99417
2022-09-26T03:21:00.368Z,99420
2022-09-26T03:22:00.501Z,99420
2022-09-26T03:23:01.818Z,99420
2022-09-26T03:24:00.381Z,99420
2022-09-26T03:25:00.314Z,99420
2022-09-26T03:26:01.993Z,99417
2022-09-26T03:27:01.445Z,99417
2022-09-26T03:28:00.387Z,99417
2022-09-26T03:29:00.507Z,99417
2022-09-26T03:30:00.309Z,99417
2022-09-26T03:31:00.296Z,99403
2022-09-26T03:32:00.719Z,99403
2022-09-26T03:33:00.289Z,99403
2022-09-26T03:34:00.297Z,99403
2022-09-26T03:35:00.353Z,99403
2022-09-26T03:36:03.487Z,99377
2022-09-26T03:37:00.268Z,99377
2022-09-26T03:38:00.295Z,99377
2022-09-26T03:39:00.297Z,99377
2022-09-26T03:40:01.975Z,99377
2022-09-26T03:41:00.381Z,99357
2022-09-26T03:42:00.281Z,99357
2022-09-26T03:43:00.292Z,99357
2022-09-26T03:44:00.370Z,99357
2022-09-26T03:45:01.064Z,99357
2022-09-26T03:46:04.658Z,99355
2022-09-26T03:47:00.300Z,99355
2022-09-26T03:48:00.404Z,99355
2022-09-26T03:49:00.283Z,99355
2022-09-26T03:50:00.304Z,99355
2022-09-26T03:51:02.800Z,99343
2022-09-26T03:52:00.396Z,99343
2022-09-26T03:53:00.580Z,99343
2022-09-26T03:54:00.268Z,99343
2022-09-26T03:55:00.272Z,99343
2022-09-26T03:56:03.019Z,99347
2022-09-26T03:57:00.292Z,99347
2022-09-26T03:58:00.571Z,99347
2022-09-26T03:59:00.284Z,99347
2022-09-26T04:00:00.398Z,99347
2022-09-26T04:01:04.629Z,99340
2022-09-26T04:02:00.424Z,99340
2022-09-26T04:03:00.283Z,99340
2022-09-26T04:04:00.407Z,99340
2022-09-26T04:05:00.364Z,99340
2022-09-26T04:06:00.291Z,99326
2022-09-26T04:07:00.435Z,99326
2022-09-26T04:08:00.357Z,99326
2022-09-26T04:09:00.341Z,99326
2022-09-26T04:10:00.484Z,99326
2022-09-26T04:11:01.073Z,99310
2022-09-26T04:12:00.415Z,99310
2022-09-26T04:13:00.298Z,99310
2022-09-26T04:14:00.280Z,99310
2022-09-26T04:15:00.270Z,99310
2022-09-26T04:16:00.539Z,99292
2022-09-26T04:17:00.281Z,99292
2022-09-26T04:18:00.263Z,99292
2022-09-26T04:19:00.308Z,99292
2022-09-26T04:20:00.621Z,99292
2022-09-26T04:21:01.796Z,99263
2022-09-26T04:22:00.415Z,99263
2022-09-26T04:23:00.269Z,99263
2022-09-26T04:24:00.982Z,99263
2022-09-26T04:25:00.275Z,99263
2022-09-26T04:26:10.288Z,99245
2022-09-26T04:27:00.258Z,99245
2022-09-26T04:28:00.417Z,99245
2022-09-26T04:29:00.389Z,99245
2022-09-26T04:30:00.285Z,99245
2022-09-26T04:31:01.230Z,99243
2022-09-26T04:32:00.560Z,99243
2022-09-26T04:33:00.292Z,99243
2022-09-26T04:34:00.260Z,99243
2022-09-26T04:35:00.323Z,99243
2022-09-26T04:36:01.180Z,99221
2022-09-26T04:37:00.270Z,99221
2022-09-26T04:38:00.280Z,99221
2022-09-26T04:39:00.261Z,99221
2022-09-26T04:40:00.403Z,99221
2022-09-26T04:41:02.488Z,99218
2022-09-26T04:42:00.262Z,99218
2022-09-26T04:43:00.295Z,99218
2022-09-26T04:44:01.204Z,99218
2022-09-26T04:45:00.330Z,99218
2022-09-26T04:46:00.731Z,99211
2022-09-26T04:47:00.283Z,99211
2022-09-26T04:48:00.411Z,99211
2022-09-26T04:49:00.815Z,99211
2022-09-26T04:50:00.271Z,99211
2022-09-26T04:51:03.370Z,99208
2022-09-26T04:52:00.382Z,99208
2022-09-26T04:53:00.318Z,99208
2022-09-26T04:54:00.325Z,99208
2022-09-26T04:55:00.271Z,99208
2022-09-26T04:56:00.539Z,99205
2022-09-26T04:57:00.298Z,99205
2022-09-26T04:58:00.262Z,99205
2022-09-26T04:59:00.283Z,99205
2022-09-26T05:00:00.497Z,99205
2022-09-26T05:01:01.575Z,99209
2022-09-26T05:02:00.574Z,99209
2022-09-26T05:03:00.278Z,99209
2022-09-26T05:04:00.363Z,99209
2022-09-26T05:05:00.268Z,99209
2022-09-26T05:06:00.293Z,99207
2022-09-26T05:07:00.407Z,99207
2022-09-26T05:08:00.434Z,99207
2022-09-26T05:09:00.377Z,99207
2022-09-26T05:10:00.291Z,99207
2022-09-26T05:11:00.331Z,99214
2022-09-26T05:12:00.349Z,99214
2022-09-26T05:13:00.413Z,99214
2022-09-26T05:14:00.290Z,99214
2022-09-26T05:15:00.389Z,99214
2022-09-26T05:16:00.675Z,99225
2022-09-26T05:17:00.276Z,99225
2022-09-26T05:18:00.315Z,99225
2022-09-26T05:19:00.303Z,99225
2022-09-26T05:20:00.376Z,99225
2022-09-26T05:21:00.417Z,99215
2022-09-26T05:22:00.286Z,99215
2022-09-26T05:23:01.143Z,99215
2022-09-26T05:24:00.385Z,99215
2022-09-26T05:25:00.367Z,99215
2022-09-26T05:26:00.372Z,99217
2022-09-26T05:27:04.213Z,99217
2022-09-26T05:28:00.402Z,99217
2022-09-26T05:29:05.350Z,99217
2022-09-26T05:30:00.254Z,99217
2022-09-26T05:31:00.273Z,99226
2022-09-26T05:32:00.415Z,99226
2022-09-26T05:33:00.347Z,99226
2022-09-26T05:34:00.261Z,99226
2022-09-26T05:35:00.269Z,99226
2022-09-26T05:36:00.376Z,99203
2022-09-26T05:37:00.262Z,99203
2022-09-26T05:38:01.131Z,99203
2022-09-26T05:39:00.749Z,99203
2022-09-26T05:40:00.431Z,99203
2022-09-26T05:41:00.534Z,99188
2022-09-26T05:42:00.359Z,99188
2022-09-26T05:43:00.677Z,99188
2022-09-26T05:44:00.304Z,99188
2022-09-26T05:45:00.269Z,99188
2022-09-26T05:46:01.660Z,99187
2022-09-26T05:47:00.519Z,99187
2022-09-26T05:48:00.370Z,99187
2022-09-26T05:49:00.268Z,99187
2022-09-26T05:50:00.337Z,99187
2022-09-26T05:51:01.033Z,99181
2022-09-26T05:52:00.407Z,99181
2022-09-26T05:53:01.438Z,99181
2022-09-26T05:54:00.324Z,99181
2022-09-26T05:55:00.308Z,99181
2022-09-26T05:56:00.460Z,99179
2022-09-26T05:57:00.281Z,99179
2022-09-26T05:58:00.314Z,99179
2022-09-26T05:59:00.264Z,99179
2022-09-26T06:00:00.416Z,99179
2022-09-26T06:01:01.408Z,99182
2022-09-26T06:02:00.299Z,99182
2022-09-26T06:03:00.984Z,99182
2022-09-26T06:04:00.636Z,99182
2022-09-26T06:05:00.323Z,99182
2022-09-26T06:06:02.211Z,99181
2022-09-26T06:07:00.296Z,99181
2022-09-26T06:08:00.397Z,99181
2022-09-26T06:09:00.293Z,99181
2022-09-26T06:10:00.278Z,99181
2022-09-26T06:11:01.090Z,99175
2022-09-26T06:12:00.402Z,99175
2022-09-26T06:13:00.740Z,99175
2022-09-26T06:14:00.343Z,99175
2022-09-26T06:15:00.335Z,99175
2022-09-26T06:16:02.334Z,99181
2022-09-26T06:17:00.287Z,99181
2022-09-26T06:18:01.781Z,99181
2022-09-26T06:19:00.344Z,99181
2022-09-26T06:20:00.377Z,99181
2022-09-26T06:21:01.366Z,99189
2022-09-26T06:22:00.289Z,99189
2022-09-26T06:23:00.292Z,99189
2022-09-26T06:24:00.399Z,99189
2022-09-26T06:25:00.264Z,99189
2022-09-26T06:26:01.023Z,99184
2022-09-26T06:27:00.392Z,99184
2022-09-26T06:28:00.526Z,99184
2022-09-26T06:29:00.665Z,99184
2022-09-26T06:30:00.287Z,99184
2022-09-26T06:31:07.162Z,99184
2022-09-26T06:32:00.529Z,99184
2022-09-26T06:33:00.298Z,99184
2022-09-26T06:34:00.279Z,99184
2022-09-26T06:35:00.325Z,99184
2022-09-26T06:36:01.201Z,99185
2022-09-26T06:37:00.308Z,99185
2022-09-26T06:38:00.269Z,99185
2022-09-26T06:39:00.356Z,99185
2022-09-26T06:40:00.437Z,99185
2022-09-26T06:41:00.506Z,99183
2022-09-26T06:42:00.990Z,99183
2022-09-26T06:43:00.286Z,99183
2022-09-26T06:44:00.399Z,99183
2022-09-26T06:45:00.269Z,99183
2022-09-26T06:46:00.504Z,99200
2022-09-26T06:47:00.376Z,99200
2022-09-26T06:48:00.495Z,99200
2022-09-26T06:49:00.269Z,99200
2022-09-26T06:50:00.534Z,99200
2022-09-26T06:51:00.423Z,99208
2022-09-26T06:52:00.886Z,99208
2022-09-26T06:53:10.863Z,99208
2022-09-26T06:54:00.272Z,99208
2022-09-26T06:55:00.889Z,99208
2022-09-26T06:56:00.861Z,99205
2022-09-26T06:57:00.286Z,99205
2022-09-26T06:58:00.415Z,99205
2022-09-26T06:59:00.263Z,99205
2022-09-26T07:00:00.480Z,99205
2022-09-26T07:01:00.636Z,99210
2022-09-26T07:02:00.454Z,99210
2022-09-26T07:03:00.425Z,99210
2022-09-26T07:04:00.396Z,99210
2022-09-26T07:05:00.719Z,99210
2022-09-26T07:06:00.381Z,99204
2022-09-26T07:07:00.430Z,99204
2022-09-26T07:08:00.678Z,99204
2022-09-26T07:09:03.860Z,99204
2022-09-26T07:10:00.262Z,99204
2022-09-26T07:11:21.209Z,99197
2022-09-26T07:12:15.048Z,99197
2022-09-26T07:13:01.128Z,99197
2022-09-26T07:14:00.448Z,99197
2022-09-26T07:15:00.299Z,99197
2022-09-26T07:16:00.451Z,99203
2022-09-26T07:17:00.282Z,99203
2022-09-26T07:18:01.099Z,99203
2022-09-26T07:19:00.278Z,99203
2022-09-26T07:20:00.386Z,99203
2022-09-26T07:21:03.403Z,99207
2022-09-26T07:22:00.273Z,99207
2022-09-26T07:23:00.673Z,99207
2022-09-26T07:24:00.379Z,99207
2022-09-26T07:25:00.293Z,99207
2022-09-26T07:26:00.306Z,99204
2022-09-26T07:27:00.458Z,99204
2022-09-26T07:28:00.371Z,99204
2022-09-26T07:29:00.271Z,99204
2022-09-26T07:30:00.371Z,99204
2022-09-26T07:31:00.343Z,99206
2022-09-26T07:32:00.400Z,99206
2022-09-26T07:33:01.125Z,99206
2022-09-26T07:34:00.276Z,99206
2022-09-26T07:35:00.507Z,99206
2022-09-26T07:36:04.568Z,99203
2022-09-26T07:37:00.269Z,99203
2022-09-26T07:38:00.707Z,99203
2022-09-26T07:39:00.281Z,99203
2022-09-26T07:40:01.807Z,99203
2022-09-26T07:41:00.331Z,99193
2022-09-26T07:42:00.315Z,99193
2022-09-26T07:43:18.455Z,99193
2022-09-26T07:45:01.874Z,99193
2022-09-26T07:45:28.070Z,99193
2022-09-26T07:46:00.287Z,99190
2022-09-26T07:47:00.467Z,99190
2022-09-26T07:48:00.391Z,99190
2022-09-26T07:49:00.279Z,99190
2022-09-26T07:50:00.285Z,99190
2022-09-26T07:51:01.859Z,99187
2022-09-26T07:52:00.379Z,99187
2022-09-26T07:53:00.271Z,99187
2022-09-26T07:54:00.265Z,99187
2022-09-26T07:55:00.304Z,99187
2022-09-26T07:56:00.377Z,99192
2022-09-26T07:57:00.285Z,99192
2022-09-26T07:58:00.266Z,99192
2022-09-26T07:59:00.599Z,99192
2022-09-26T08:00:05.256Z,99192
2022-09-26T08:01:00.557Z,99201
2022-09-26T08:02:01.200Z,99201
2022-09-26T08:03:00.380Z,99201
2022-09-26T08:04:00.392Z,99201
2022-09-26T08:05:01.209Z,99201
2022-09-26T08:06:00.814Z,99209
2022-09-26T08:07:00.295Z,99209
2022-09-26T08:08:00.325Z,99209
2022-09-26T08:09:00.274Z,99209
2022-09-26T08:10:00.405Z,99209
2022-09-26T08:11:03.923Z,99209
2022-09-26T08:12:00.354Z,99209
2022-09-26T08:13:00.260Z,99209
2022-09-26T08:14:00.278Z,99209
2022-09-26T08:15:00.325Z,99209
2022-09-26T08:16:02.224Z,99211
2022-09-26T08:17:00.266Z,99211
2022-09-26T08:18:01.310Z,99211
2022-09-26T08:19:00.279Z,99211
2022-09-26T08:20:00.492Z,99211
2022-09-26T08:21:02.283Z,99215
2022-09-26T08:22:00.303Z,99215
2022-09-26T08:23:00.281Z,99215
2022-09-26T08:24:00.970Z,99215
2022-09-26T08:25:00.345Z,99215
2022-09-26T08:26:01.825Z,99203
2022-09-26T08:27:00.305Z,99203
2022-09-26T08:28:00.396Z,99203
2022-09-26T08:29:00.279Z,99203
2022-09-26T08:30:00.702Z,99203
2022-09-26T08:31:00.602Z,99209
2022-09-26T08:32:00.437Z,99209
2022-09-26T08:33:00.350Z,99209
2022-09-26T08:34:00.258Z,99209
2022-09-26T08:35:00.346Z,99209
2022-09-26T08:36:02.286Z,99200
2022-09-26T08:37:00.368Z,99200
2022-09-26T08:38:01.216Z,99200
2022-09-26T08:39:00.353Z,99200
2022-09-26T08:40:00.377Z,99200
2022-09-26T08:41:10.276Z,99199
2022-09-26T08:42:07.704Z,99199
2022-09-26T08:43:10.208Z,99199
2022-09-26T08:44:10.304Z,99199
2022-09-26T08:45:10.232Z,99199
2022-09-26T08:46:00.279Z,99219
2022-09-26T08:47:03.071Z,99219
2022-09-26T08:48:05.066Z,99219
2022-09-26T08:49:10.245Z,99219
2022-09-26T08:50:10.274Z,99219
2022-09-26T08:51:10.214Z,99223
2022-09-26T08:52:04.006Z,99223
2022-09-26T08:53:00.250Z,99223
2022-09-26T08:54:04.426Z,99223
2022-09-26T08:55:04.541Z,99223
2022-09-26T08:56:02.130Z,99243
2022-09-26T08:57:05.770Z,99243
2022-09-26T08:58:03.592Z,99243
2022-09-26T08:59:02.701Z,99243
2022-09-26T09:00:03.993Z,99243
2022-09-26T09:01:01.163Z,99233
2022-09-26T09:02:03.217Z,99233
2022-09-26T09:03:07.795Z,99233
2022-09-26T09:04:04.298Z,99233
2022-09-26T09:05:07.979Z,99233
2022-09-26T09:06:04.943Z,99231
2022-09-26T09:07:06.228Z,99231
2022-09-26T09:08:02.197Z,99231
2022-09-26T09:09:00.309Z,99231
2022-09-26T09:10:02.000Z,99231
2022-09-26T09:11:10.264Z,99246
2022-09-26T09:12:07.812Z,99246
2022-09-26T09:13:10.279Z,99246
2022-09-26T09:14:01.281Z,99246
2022-09-26T09:15:24.734Z,99246
2022-09-26T09:16:07.980Z,99258
2022-09-26T09:17:10.431Z,99258
2022-09-26T09:18:13.393Z,99258
2022-09-26T09:19:10.285Z,99258
2022-09-26T09:20:10.269Z,99258
2022-09-26T09:21:10.228Z,99262
2022-09-26T09:22:10.255Z,99262
2022-09-26T09:23:10.286Z,99262
2022-09-26T09:24:10.286Z,99262
2022-09-26T09:25:02.577Z,99262
2022-09-26T09:28:10.215Z,99257
2022-09-26T09:29:01.289Z,99257
2022-09-26T09:30:15.874Z,99257
2022-09-26T09:31:02.843Z,99243
2022-09-26T09:32:01.859Z,99243
2022-09-26T09:33:04.344Z,99243
2022-09-26T09:34:02.758Z,99243
2022-09-26T09:35:01.244Z,99243
2022-09-26T09:36:05.700Z,99240
2022-09-26T09:37:04.717Z,99240
2022-09-26T09:38:00.558Z,99240
2022-09-26T09:39:03.953Z,99240
2022-09-26T09:40:01.214Z,99240
2022-09-26T09:41:03.166Z,99255
2022-09-26T09:42:05.825Z,99255
2022-09-26T09:43:06.603Z,99255
2022-09-26T09:44:03.745Z,99255
2022-09-26T09:45:04.586Z,99255
2022-09-26T09:46:04.821Z,99252
2022-09-26T09:47:00.422Z,99252
2022-09-26T09:48:00.379Z,99252
2022-09-26T09:49:07.569Z,99252
2022-09-26T09:50:00.273Z,99252
2022-09-26T09:51:10.191Z,99256
2022-09-26T09:52:10.177Z,99256
2022-09-26T09:53:10.199Z,99256
2022-09-26T09:54:00.253Z,99256
2022-09-26T09:55:03.544Z,99256
2022-09-26T09:56:01.287Z,99243
2022-09-26T09:57:10.189Z,99243
2022-09-26T09:58:09.599Z,99243
2022-09-26T09:59:10.200Z,99243
2022-09-26T10:00:10.234Z,99243
2022-09-26T10:01:10.188Z,99243
2022-09-26T10:02:10.185Z,99243
2022-09-26T10:03:10.069Z,99243
2022-09-26T10:04:10.201Z,99243
2022-09-26T10:05:00.254Z,99243
2022-09-26T10:06:00.703Z,99251
2022-09-26T10:07:00.283Z,99251
2022-09-26T10:08:01.329Z,99251
2022-09-26T10:09:39.683Z,99251
2022-09-26T10:10:00.266Z,99251
2022-09-26T10:11:10.187Z,99250
2022-09-26T10:12:00.922Z,99250
2022-09-26T10:13:00.492Z,99250
2022-09-26T10:14:03.792Z,99250
2022-09-26T10:15:02.563Z,99250
2022-09-26T10:16:03.332Z,99248
2022-09-26T10:17:10.179Z,99248
2022-09-26T10:18:23.592Z,99248
2022-09-26T10:19:04.862Z,99248
2022-09-26T10:20:00.397Z,99248
2022-09-26T10:21:03.812Z,99252
2022-09-26T10:22:00.334Z,99252
2022-09-26T10:23:00.352Z,99252
2022-09-26T10:24:01.227Z,99252
2022-09-26T10:25:03.745Z,99252
2022-09-26T10:26:02.415Z,99252
2022-09-26T10:27:10.203Z,99252
2022-09-26T10:28:00.459Z,99252
2022-09-26T10:29:02.562Z,99252
2022-09-26T10:30:01.868Z,99252
2022-09-26T10:31:02.989Z,99241
2022-09-26T10:32:01.379Z,99241
2022-09-26T10:33:00.752Z,99241
2022-09-26T10:34:02.355Z,99241
2022-09-26T10:35:03.384Z,99241
2022-09-26T10:36:07.355Z,99238
2022-09-26T10:37:10.168Z,99238
2022-09-26T10:38:01.509Z,99238
2022-09-26T10:39:04.111Z,99238
2022-09-26T10:40:00.441Z,99238
2022-09-26T10:41:01.141Z,99230
2022-09-26T10:42:01.218Z,99230
2022-09-26T10:43:10.209Z,99230
2022-09-26T10:44:00.281Z,99230
2022-09-26T10:45:07.469Z,99230
2022-09-26T10:46:03.844Z,99230
2022-09-26T10:47:03.727Z,99230
2022-09-26T10:48:01.893Z,99230
2022-09-26T10:49:01.838Z,99230
2022-09-26T10:50:10.184Z,99230
2022-09-26T10:51:00.564Z,99239
2022-09-26T10:52:03.736Z,99239
2022-09-26T10:53:02.533Z,99239
2022-09-26T10:54:07.782Z,99239
2022-09-26T10:55:07.926Z,99239
2022-09-26T10:56:04.579Z,99241
2022-09-26T10:57:00.298Z,99241
2022-09-26T10:58:03.101Z,99241
2022-09-26T10:59:01.713Z,99241
2022-09-26T11:00:00.784Z,99241
2022-09-26T11:01:00.335Z,99243
2022-09-26T11:02:00.466Z,99243
2022-09-26T11:03:00.421Z,99243
2022-09-26T11:04:10.350Z,99243
2022-09-26T11:05:03.419Z,99243
2022-09-26T11:06:00.323Z,99236
2022-09-26T11:07:00.298Z,99236
2022-09-26T11:08:02.257Z,99236
2022-09-26T11:09:01.814Z,99236
2022-09-26T11:10:04.977Z,99236
2022-09-26T11:11:01.637Z,99237
2022-09-26T11:12:10.203Z,99237
2022-09-26T11:13:02.225Z,99237
2022-09-26T11:14:01.619Z,99237
2022-09-26T11:15:06.776Z,99237
2022-09-26T11:16:00.388Z,99249
2022-09-26T11:17:00.265Z,99249
2022-09-26T11:18:01.001Z,99249
2022-09-26T11:19:03.749Z,99249
2022-09-26T11:20:01.487Z,99249
2022-09-26T11:21:14.334Z,99241
2022-09-26T11:22:10.169Z,99241
2022-09-26T11:23:05.759Z,99241
2022-09-26T11:24:06.522Z,99241
2022-09-26T11:25:05.542Z,99241
2022-09-26T11:26:10.171Z,99248
2022-09-26T11:27:10.177Z,99248
2022-09-26T11:28:04.389Z,99248
2022-09-26T11:29:10.221Z,99248
2022-09-26T11:30:03.710Z,99248
2022-09-26T11:31:03.562Z,99254
2022-09-26T11:32:00.636Z,99254
2022-09-26T11:33:01.151Z,99254
2022-09-26T11:34:01.805Z,99254
2022-09-26T11:35:01.130Z,99254
2022-09-26T11:36:10.195Z,99262
2022-09-26T11:37:08.755Z,99262
2022-09-26T11:38:07.614Z,99262
2022-09-26T11:39:05.374Z,99262
2022-09-26T11:40:10.298Z,99262
2022-09-26T11:41:10.177Z,99262
2022-09-26T11:42:00.277Z,99262
2022-09-26T11:43:10.172Z,99262
2022-09-26T11:44:10.194Z,99262
2022-09-26T11:45:02.630Z,99262
2022-09-26T11:46:00.460Z,99264
2022-09-26T11:47:09.522Z,99264
2022-09-26T11:48:00.253Z,99264
2022-09-26T11:49:08.923Z,99264
2022-09-26T11:50:01.290Z,99264
2022-09-26T11:51:10.013Z,99265
2022-09-26T11:52:01.315Z,99265
2022-09-26T11:53:10.185Z,99265
2022-09-26T11:54:10.186Z,99265
2022-09-26T11:55:09.050Z,99265
2022-09-26T11:56:10.185Z,99262
2022-09-26T11:57:10.177Z,99262
2022-09-26T11:58:05.231Z,99262
2022-09-26T11:59:03.558Z,99262
2022-09-26T12:00:07.519Z,99262
2022-09-26T12:01:00.252Z,99256
2022-09-26T12:02:10.193Z,99256
2022-09-26T12:03:10.367Z,99256
2022-09-26T12:04:10.253Z,99256
2022-09-26T12:05:01.284Z,99256
2022-09-26T12:06:10.190Z,99259
2022-09-26T12:07:10.175Z,99259
2022-09-26T12:08:03.587Z,99259
2022-09-26T12:09:10.173Z,99259
2022-09-26T12:10:10.287Z,99259
2022-09-26T12:11:01.289Z,99256
2022-09-26T12:12:09.336Z,99256
2022-09-26T12:13:03.605Z,99256
2022-09-26T12:14:10.183Z,99256
2022-09-26T12:15:00.245Z,99256
2022-09-26T12:16:10.246Z,99255
2022-09-26T12:17:07.712Z,99255
2022-09-26T12:18:01.298Z,99255
2022-09-26T12:19:14.120Z,99255
2022-09-26T12:20:11.406Z,99255
2022-09-26T12:21:06.681Z,99264
2022-09-26T12:22:10.216Z,99264
2022-09-26T12:23:00.257Z,99264
2022-09-26T12:24:08.704Z,99264
2022-09-26T12:25:10.181Z,99264
2022-09-26T12:26:10.180Z,99267
2022-09-26T12:27:07.095Z,99267
2022-09-26T12:28:07.644Z,99267
2022-09-26T12:29:10.208Z,99267
2022-09-26T12:30:04.678Z,99267
2022-09-26T12:31:07.790Z,99292
2022-09-26T12:32:01.255Z,99292
2022-09-26T12:33:08.221Z,99292
2022-09-26T12:34:03.555Z,99292
2022-09-26T12:35:00.365Z,99292
2022-09-26T12:36:07.689Z,99301
2022-09-26T12:37:00.261Z,99301
2022-09-26T12:38:03.556Z,99301
2022-09-26T12:39:10.194Z,99301
2022-09-26T12:40:06.707Z,99301
2022-09-26T12:41:01.357Z,99310
2022-09-26T12:42:09.627Z,99310
2022-09-26T12:43:10.181Z,99310
2022-09-26T12:44:10.185Z,99310
2022-09-26T12:45:00.265Z,99310
2022-09-26T12:46:10.291Z,99327
2022-09-26T12:47:10.178Z,99327
2022-09-26T12:48:09.200Z,99327
2022-09-26T12:49:03.551Z,99327
2022-09-26T12:50:00.257Z,99327
2022-09-26T12:51:10.195Z,99324
2022-09-26T12:52:09.290Z,99324
2022-09-26T12:53:08.583Z,99324
2022-09-26T12:54:00.258Z,99324